Chipping Norton, United Kingdom
Current Conditions -  °F | °C
As of 2:50 PM on Sunday 21 Dec 2014 (Local Time) from EGTK Reporting Station
Overcast Overcast  
Wind Chill: 41°   Ceiling: 900
Heat Index: 48°   Visibility: 6mi
Dew Point: 48°   Wind: 21mph
Humidity: 100%   Direction: 240°WSW
Pressure: 30.21"   Gusts: NA
Location:  51.94°N, 1.55°W
Report Text: EGTK 211450Z 24018KT 9999 SCT007 BKN009 OVC010 09/09 Q1023
Loading
Personal Weather Stations






























Interactive Weather Map New forecast layout! Learn more

10-Day Weather Forecast

Advertisements
Track Severe Weather on mobile